TimeCDT,TemperatureF,Dew PointF,Humidity,Sea Level PressureIn,VisibilityMPH,Wind Direction,Wind SpeedMPH,Gust SpeedMPH,PrecipitationIn,Events,Conditions,WindDirDegrees,DateUTC
12:15 AM,80.6,69.8,70,30.05,10.0,Calm,Calm,-,N/A,,Clear,0,2013-08-30 05:15:00
12:35 AM,78.8,69.8,74,30.05,10.0,Calm,Calm,-,N/A,,Clear,0,2013-08-30 05:35:00
12:55 AM,78.8,69.8,74,30.05,10.0,Calm,Calm,-,N/A,,Clear,0,2013-08-30 05:55:00
1:15 AM,78.8,69.8,74,30.05,10.0,Calm,Calm,-,N/A,,Clear,0,2013-08-30 06:15:00
1:35 AM,78.8,69.8,74,30.04,10.0,Calm,Calm,-,N/A,,Clear,0,2013-08-30 06:35:00
1:55 AM,77.0,69.8,78,30.03,10.0,Calm,Calm,-,N/A,,Partly Cloudy,0,2013-08-30 06:55:00
2:15 AM,77.0,69.8,78,30.03,10.0,Calm,Calm,-,N/A,,Partly Cloudy,0,2013-08-30 07:15:00
2:35 AM,77.0,69.8,78,30.03,10.0,Calm,Calm,-,N/A,,Partly Cloudy,0,2013-08-30 07:35:00
2:55 AM,77.0,69.8,78,30.03,10.0,South,3.5,-,N/A,,Clear,190,2013-08-30 07:55:00
3:15 AM,77.0,69.8,78,30.03,10.0,SSW,3.5,-,N/A,,Clear,200,2013-08-30 08:15:00
3:35 AM,77.0,69.8,78,30.03,10.0,SSW,4.6,-,N/A,,Clear,200,2013-08-30 08:35:00
3:55 AM,77.0,68.0,74,30.03,10.0,Calm,Calm,-,N/A,,Clear,0,2013-08-30 08:55:00
4:15 AM,77.0,68.0,74,30.03,10.0,Calm,Calm,-,N/A,,Clear,0,2013-08-30 09:15:00
4:35 AM,77.0,68.0,74,30.03,10.0,Calm,Calm,-,N/A,,Clear,0,2013-08-30 09:35:00
4:55 AM,75.2,68.0,78,30.03,10.0,Calm,Calm,-,N/A,,Clear,0,2013-08-30 09:55:00
5:15 AM,75.2,68.0,78,30.03,10.0,Calm,Calm,-,N/A,,Clear,0,2013-08-30 10:15:00
5:35 AM,75.2,68.0,78,30.03,10.0,Calm,Calm,-,N/A,,Clear,0,2013-08-30 10:35:00
5:55 AM,73.4,68.0,83,30.04,10.0,Calm,Calm,-,N/A,,Clear,0,2013-08-30 10:55:00
6:15 AM,73.4,68.0,83,30.04,10.0,Calm,Calm,-,N/A,,Clear,0,2013-08-30 11:15:00
6:35 AM,73.4,66.2,78,30.05,10.0,Calm,Calm,-,N/A,,Clear,0,2013-08-30 11:35:00
6:45 AM,75.2,68.0,78,30.05,10.0,Calm,Calm,-,N/A,,Partly Cloudy,0,2013-08-30 11:45:00
7:45 AM,77.0,68.0,74,30.06,10.0,Calm,Calm,-,N/A,,Partly Cloudy,0,2013-08-30 12:45:00
8:45 AM,82.4,68.0,62,30.06,10.0,Calm,Calm,-,N/A,,Partly Cloudy,0,2013-08-30 13:45:00
9:45 AM,82.4,69.8,66,30.06,10.0,Calm,Calm,-,N/A,,Partly Cloudy,0,2013-08-30 14:45:00
10:51 AM,86.0,71.6,62,30.06,10.0,Calm,Calm,-,N/A,,Partly Cloudy,0,2013-08-30 15:51:00
11:55 AM,89.6,68.0,49,30.05,10.0,WSW,5.8,-,N/A,,Clear,240,2013-08-30 16:55:00
12:45 PM,91.4,69.8,49,30.04,10.0,Calm,Calm,-,N/A,,Partly Cloudy,0,2013-08-30 17:45:00
1:48 PM,91.4,68.0,46,30.02,10.0,Calm,Calm,-,N/A,,Scattered Clouds,0,2013-08-30 18:48:00
2:46 PM,93.2,69.8,46,30.00,10.0,WNW,5.8,-,N/A,,Scattered Clouds,290,2013-08-30 19:46:00
3:45 PM,93.2,68.0,44,29.98,10.0,SW,6.9,-,N/A,,Scattered Clouds,230,2013-08-30 20:45:00
4:47 PM,93.2,68.0,44,29.97,10.0,WNW,4.6,-,N/A,,Scattered Clouds,300,2013-08-30 21:47:00
5:51 PM,91.4,69.8,49,29.96,10.0,NW,4.6,-,N/A,,Partly Cloudy,320,2013-08-30 22:51:00
6:46 PM,89.6,71.6,55,29.96,10.0,Calm,Calm,-,N/A,,Partly Cloudy,0,2013-08-30 23:46:00
7:50 PM,84.2,71.6,66,29.95,10.0,Calm,Calm,-,N/A,,Clear,0,2013-08-31 00:50:00
8:46 PM,82.4,71.6,70,29.95,10.0,Calm,Calm,-,N/A,,Clear,0,2013-08-31 01:46:00
9:15 PM,80.6,71.6,74,29.95,10.0,South,3.5,-,N/A,,Clear,190,2013-08-31 02:15:00
9:35 PM,80.6,69.8,70,29.95,10.0,South,3.5,-,N/A,,Clear,190,2013-08-31 02:35:00
9:55 PM,80.6,69.8,70,29.94,10.0,Calm,Calm,-,N/A,,Clear,0,2013-08-31 02:55:00
10:15 PM,78.8,68.0,69,29.94,10.0,Calm,Calm,-,N/A,,Clear,0,2013-08-31 03:15:00
10:35 PM,78.8,68.0,69,29.94,10.0,Calm,Calm,-,N/A,,Clear,0,2013-08-31 03:35:00
10:55 PM,77.0,68.0,74,29.94,10.0,Calm,Calm,-,N/A,,Clear,0,2013-08-31 03:55:00
11:15 PM,78.8,68.0,69,29.94,10.0,SSW,4.6,-,N/A,,Clear,200,2013-08-31 04:15:00
11:35 PM,80.6,68.0,65,29.93,10.0,SSW,4.6,-,N/A,,Clear,200,2013-08-31 04:35:00
11:55 PM,80.6,68.0,65,29.94,10.0,Calm,Calm,-,N/A,,Clear,0,2013-08-31 04:55:00